Time;durP1;ratioP1;P1;durP2;ratioP2;P2;SDS_P1;SDS_P2;PMS_P1;PMS_P2;Temp;Humidity;BMP_temperature;BMP_pressure;BME280_temperature;BME280_humidity;BME280_pressure;Samples;Min_cycle;Max_cycle;Signal;HPM_P1;HPM_P2
2022/12/11 00:00:40;;;;;;;;;;;;;;;4.77;85.70;98364.78;5319833;32;35639;-77
2022/12/11 00:03:42;;;;;;;;;;;;;;;4.82;84.62;98344.56;5305893;32;34736;-77
2022/12/11 00:06:44;;;;;;;;;;;;;;;4.66;85.78;98346.22;5323843;32;34660;-76
2022/12/11 00:09:46;;;;;;;;;;;;;;;4.80;84.95;98349.00;5306142;32;35221;-75
2022/12/11 00:12:48;;;;;;;;;;;;;;;4.78;84.89;98343.03;5320136;32;35914;-66
2022/12/11 00:15:50;;;;;;;;;;;;;;;5.28;83.91;98338.84;5308605;32;43564;-67
2022/12/11 00:18:52;;;;;;;;;;;;;;;4.53;85.66;98332.97;5308680;32;35437;-66
2022/12/11 00:21:54;;;;;;;;;;;;;;;4.81;84.58;98336.84;5325981;32;35963;-67
2022/12/11 00:24:56;;;;;;;;;;;;;;;4.59;85.49;98334.44;5309756;32;36526;-66
2022/12/11 00:27:58;;;;;;;;;;;;;;;4.59;84.36;98329.22;5326774;32;34971;-67
2022/12/11 00:31:03;;;;;;;;;;;;;;;4.65;85.16;98323.72;5308759;32;35836;-66
2022/12/11 00:34:05;;;;;;;;;;;;;;;4.41;84.73;98323.13;5319052;32;35558;-76
2022/12/11 00:37:07;;;;;;;;;;;;;;;4.13;87.14;98341.78;5314853;32;35756;-76
2022/12/11 00:40:09;;;;;;;;;;;;;;;4.70;84.73;98334.78;5306683;32;35733;-67
2022/12/11 00:43:11;;;;;;;;;;;;;;;4.39;84.04;98330.16;5298771;32;34914;-65
2022/12/11 00:46:13;;;;;;;;;;;;;;;4.50;84.84;98327.03;5306092;32;36054;-66
2022/12/11 00:49:15;;;;;;;;;;;;;;;4.55;84.06;98325.91;5317419;32;34768;-68
2022/12/11 00:52:17;;;;;;;;;;;;;;;4.62;85.52;98323.87;5307400;32;35573;-76
2022/12/11 00:55:19;;;;;;;;;;;;;;;4.29;84.77;98328.91;5318576;32;35804;-75
2022/12/11 00:58:21;;;;;;;;;;;;;;;4.74;84.26;98327.66;5313611;32;45393;-76
2022/12/11 01:01:24;;;;;;;;;;;;;;;4.92;82.15;98325.91;5308317;32;35712;-67
2022/12/11 01:04:26;;;;;;;;;;;;;;;4.70;82.95;98318.28;5323296;32;35583;-66
2022/12/11 01:07:28;;;;;;;;;;;;;;;5.03;82.24;98332.28;5305675;32;35546;-67
2022/12/11 01:10:30;;;;;;;;;;;;;;;4.61;83.35;98320.41;5321891;32;35790;-76
2022/12/11 01:13:32;;;;;;;;;;;;;;;4.44;84.75;98327.31;5308404;32;34926;-66
2022/12/11 01:16:34;;;;;;;;;;;;;;;4.81;83.76;98326.44;5317088;32;34978;-75
2022/12/11 01:19:36;;;;;;;;;;;;;;;5.06;81.95;98346.91;5311042;32;34777;-76
2022/12/11 01:22:38;;;;;;;;;;;;;;;4.71;81.45;98348.63;5308322;32;34236;-76
2022/12/11 01:25:40;;;;;;;;;;;;;;;5.69;80.37;98341.97;5321694;32;35358;-74
2022/12/11 01:28:43;;;;;;;;;;;;;;;5.65;78.23;98340.44;5307128;32;35719;-75
2022/12/11 01:31:44;;;;;;;;;;;;;;;5.50;78.90;98347.28;5322102;32;35692;-66
2022/12/11 01:34:46;;;;;;;;;;;;;;;4.83;81.63;98348.00;5308519;32;35494;-75
2022/12/11 01:37:48;;;;;;;;;;;;;;;4.71;81.68;98352.06;5315622;32;35727;-76
2022/12/11 01:40:50;;;;;;;;;;;;;;;5.19;80.18;98350.59;5317829;32;44069;-74
2022/12/11 01:43:55;;;;;;;;;;;;;;;5.57;77.18;98351.28;5287113;32;36176;-76
2022/12/11 01:46:57;;;;;;;;;;;;;;;4.77;79.26;98351.78;5324416;32;36214;-67
2022/12/11 01:49:59;;;;;;;;;;;;;;;4.44;79.66;98348.97;5307510;32;35374;-66
2022/12/11 01:53:01;;;;;;;;;;;;;;;4.47;80.85;98348.00;5323638;32;35626;-78
2022/12/11 01:56:03;;;;;;;;;;;;;;;4.62;80.62;98347.28;5301661;32;34801;-66
2022/12/11 01:59:06;;;;;;;;;;;;;;;4.52;79.67;98356.44;5314158;32;35861;-75
2022/12/11 02:02:34;;;;;;;;;;;;;;;4.67;78.37;98368.72;5317326;32;35572;-66
2022/12/11 02:05:36;;;;;;;;;;;;;;;4.29;78.93;98370.50;5311346;32;35866;-77
2022/12/11 02:08:38;;;;;;;;;;;;;;;4.51;77.73;98368.63;5315983;32;36076;-76
2022/12/11 02:11:46;;;;;;;;;;;;;;;3.88;80.56;98374.97;5306726;32;36584;-66
2022/12/11 02:15:07;;;;;;;;;;;;;;;3.62;81.89;98363.94;5315032;32;35245;-67
2022/12/11 02:18:18;;;;;;;;;;;;;;;3.84;81.58;98355.22;5324050;32;35970;-76
2022/12/11 02:21:24;;;;;;;;;;;;;;;3.90;80.33;98360.97;5307895;32;33689;-74
2022/12/11 02:24:38;;;;;;;;;;;;;;;3.88;80.09;98367.16;5316410;32;35656;-67
2022/12/11 02:27:55;;;;;;;;;;;;;;;3.46;83.16;98371.53;5305779;32;35557;-76
2022/12/11 02:31:05;;;;;;;;;;;;;;;3.63;80.43;98370.00;5310167;32;46147;-65
2022/12/11 02:34:18;;;;;;;;;;;;;;;3.78;80.76;98344.16;5322893;32;35658;-66
2022/12/11 02:37:20;;;;;;;;;;;;;;;3.16;82.49;98376.28;5305784;32;35214;-76
2022/12/11 02:40:23;;;;;;;;;;;;;;;3.18;81.70;98371.84;5323074;32;44607;-76
2022/12/11 02:43:25;;;;;;;;;;;;;;;3.54;81.11;98355.63;5285309;32;35037;-66
2022/12/11 02:46:27;;;;;;;;;;;;;;;3.75;79.58;98356.47;5318903;32;35376;-75
2022/12/11 02:49:29;;;;;;;;;;;;;;;3.78;79.65;98353.72;5310461;32;35625;-68
2022/12/11 02:52:31;;;;;;;;;;;;;;;3.31;80.81;98354.03;5300547;32;36076;-65
2022/12/11 02:55:33;;;;;;;;;;;;;;;2.86;81.57;98357.59;5322427;32;34766;-74
2022/12/11 02:58:35;;;;;;;;;;;;;;;2.96;82.91;98352.84;5305662;32;34871;-76
2022/12/11 03:01:36;;;;;;;;;;;;;;;2.96;82.02;98337.28;5327017;32;35537;-65
2022/12/11 03:04:38;;;;;;;;;;;;;;;2.81;82.34;98358.69;5302572;32;35646;-76
2022/12/11 03:07:41;;;;;;;;;;;;;;;2.79;82.78;98352.72;5310867;32;35325;-66
2022/12/11 03:10:43;;;;;;;;;;;;;;;2.79;82.12;98342.34;5306119;32;35785;-75
2022/12/11 03:13:45;;;;;;;;;;;;;;;2.82;81.73;98337.84;5306236;32;35231;-66
2022/12/11 03:16:53;;;;;;;;;;;;;;;2.89;82.47;98341.88;5324029;32;35583;-64
2022/12/11 03:19:59;;;;;;;;;;;;;;;2.50;83.02;98335.69;5307013;32;44853;-77
2022/12/11 03:23:04;;;;;;;;;;;;;;;2.81;82.90;98346.53;5316550;32;35354;-76
2022/12/11 03:26:09;;;;;;;;;;;;;;;2.95;80.93;98345.97;5306585;32;35343;-68
2022/12/11 03:29:22;;;;;;;;;;;;;;;2.50;83.43;98340.88;5313177;32;35120;-74
2022/12/11 03:32:28;;;;;;;;;;;;;;;2.82;81.68;98342.19;5322005;32;45076;-75
2022/12/11 03:35:30;;;;;;;;;;;;;;;2.90;81.54;98340.16;5306482;32;35030;-66
2022/12/11 03:38:37;;;;;;;;;;;;;;;2.90;84.63;98342.75;5323617;32;36050;-78
2022/12/11 03:41:39;;;;;;;;;;;;;;;2.94;81.48;98339.94;5295403;32;35594;-66
2022/12/11 03:44:41;;;;;;;;;;;;;;;3.45;79.37;98332.66;5307776;32;35705;-74
2022/12/11 03:47:43;;;;;;;;;;;;;;;3.42;79.68;98332.81;5306987;32;35740;-66
2022/12/11 03:50:45;;;;;;;;;;;;;;;2.75;80.80;98346.78;5307035;32;37319;-74
2022/12/11 03:53:47;;;;;;;;;;;;;;;3.20;78.91;98346.66;5325034;32;35318;-75
2022/12/11 03:56:50;;;;;;;;;;;;;;;2.93;80.06;98342.62;5309090;32;36022;-66
2022/12/11 03:59:52;;;;;;;;;;;;;;;3.12;80.01;98340.97;5323706;32;45384;-66
2022/12/11 04:03:12;;;;;;;;;;;;;;;2.77;81.21;98337.22;5307826;32;35491;-76
2022/12/11 04:06:15;;;;;;;;;;;;;;;2.80;81.69;98336.25;5312133;32;38515;-74
2022/12/11 04:09:17;;;;;;;;;;;;;;;2.84;80.76;98343.84;5315722;32;38836;-76
2022/12/11 04:12:19;;;;;;;;;;;;;;;2.63;80.69;98345.53;5306965;32;35591;-75
2022/12/11 04:15:21;;;;;;;;;;;;;;;2.93;80.70;98353.00;5325927;32;44586;-75
2022/12/11 04:25:05;;;;;;;;;;;;;;;2.29;83.23;98360.69;5316525;32;34898;-76
2022/12/11 04:28:07;;;;;;;;;;;;;;;2.54;81.63;98363.22;5307527;32;34972;-67
2022/12/11 04:31:12;;;;;;;;;;;;;;;2.40;81.64;98368.94;5324724;32;36165;-75
2022/12/11 04:34:14;;;;;;;;;;;;;;;2.02;82.72;98358.25;5308050;32;36536;-65
2022/12/11 04:37:16;;;;;;;;;;;;;;;3.07;81.24;98371.44;5322662;32;35522;-75
2022/12/11 04:40:18;;;;;;;;;;;;;;;2.18;82.80;98380.06;5309294;32;34324;-66
2022/12/11 04:43:20;;;;;;;;;;;;;;;2.61;82.68;98378.47;5293526;32;44879;-66
2022/12/11 04:46:23;;;;;;;;;;;;;;;2.33;83.16;98373.50;5315306;32;35484;-75
2022/12/11 04:49:25;;;;;;;;;;;;;;;2.33;82.33;98398.59;5308457;32;35408;-72
2022/12/11 04:52:27;;;;;;;;;;;;;;;2.58;81.58;98404.53;5325459;32;36808;-68
2022/12/11 04:55:28;;;;;;;;;;;;;;;2.63;80.20;98405.19;5310360;32;35963;-79
2022/12/11 04:58:30;;;;;;;;;;;;;;;2.83;80.38;98411.34;5325197;32;35189;-65
2022/12/11 05:01:32;;;;;;;;;;;;;;;2.49;80.15;98404.03;5305125;32;35049;-66
2022/12/11 05:04:34;;;;;;;;;;;;;;;2.77;80.45;98408.97;5303712;32;35208;-75
2022/12/11 05:07:36;;;;;;;;;;;;;;;2.38;81.85;98425.16;5317623;32;35576;-66
2022/12/11 05:10:38;;;;;;;;;;;;;;;2.27;81.69;98430.75;5307163;32;35815;-66
2022/12/11 05:13:40;;;;;;;;;;;;;;;2.35;81.83;98443.44;5325011;32;36535;-74
2022/12/11 05:16:42;;;;;;;;;;;;;;;2.73;80.57;98447.19;5306811;32;36274;-74
2022/12/11 05:19:45;;;;;;;;;;;;;;;2.30;81.38;98434.97;5325837;32;36261;-66
2022/12/11 05:22:47;;;;;;;;;;;;;;;2.53;80.85;98439.31;5308281;32;35311;-66
2022/12/11 05:25:55;;;;;;;;;;;;;;;2.26;81.94;98447.22;5315388;32;36023;-65
2022/12/11 05:28:57;;;;;;;;;;;;;;;2.36;81.12;98440.78;5320181;32;44900;-67
2022/12/11 05:32:00;;;;;;;;;;;;;;;2.32;81.87;98454.78;5306515;32;35643;-74
2022/12/11 05:35:02;;;;;;;;;;;;;;;1.90;81.62;98442.44;5324970;32;35340;-66
2022/12/11 05:38:04;;;;;;;;;;;;;;;1.86;83.00;98452.94;5308702;32;35647;-66
2022/12/11 05:41:06;;;;;;;;;;;;;;;2.27;81.07;98454.09;5325365;32;34812;-76
2022/12/11 05:44:10;;;;;;;;;;;;;;;2.29;81.44;98433.28;5286424;32;36069;-67
2022/12/11 05:47:12;;;;;;;;;;;;;;;2.26;80.95;98434.25;5308295;32;35396;-76
2022/12/11 05:50:14;;;;;;;;;;;;;;;2.10;82.06;98443.47;5325159;32;35364;-66
2022/12/11 05:53:15;;;;;;;;;;;;;;;2.48;80.17;98428.28;5305758;32;34821;-66
2022/12/11 05:56:19;;;;;;;;;;;;;;;2.39;80.82;98435.50;5320399;32;35392;-75
2022/12/11 05:59:20;;;;;;;;;;;;;;;2.29;80.10;98449.69;5306617;32;44861;-67
2022/12/11 06:02:22;;;;;;;;;;;;;;;2.15;80.26;98442.41;5323881;32;35536;-64
2022/12/11 06:05:24;;;;;;;;;;;;;;;2.26;81.01;98457.59;5302463;32;34815;-75
2022/12/11 06:08:27;;;;;;;;;;;;;;;2.89;78.74;98439.63;5302712;32;35534;-65
2022/12/11 06:11:29;;;;;;;;;;;;;;;2.45;79.37;98457.75;5324200;32;35452;-67
2022/12/11 06:14:31;;;;;;;;;;;;;;;2.18;80.58;98473.38;5302902;32;35847;-75
2022/12/11 06:17:33;;;;;;;;;;;;;;;2.27;80.58;98477.41;5324545;32;35516;-78
2022/12/11 06:20:35;;;;;;;;;;;;;;;2.71;79.49;98486.16;5309164;32;35613;-78
2022/12/11 06:23:37;;;;;;;;;;;;;;;2.77;78.67;98497.19;5319073;32;34696;-66
2022/12/11 06:26:39;;;;;;;;;;;;;;;2.65;78.64;98501.13;5308256;32;37308;-75
2022/12/11 06:29:41;;;;;;;;;;;;;;;2.90;77.71;98503.62;5301486;32;34967;-66
2022/12/11 06:32:43;;;;;;;;;;;;;;;2.84;77.58;98507.31;5323974;32;35617;-75
2022/12/11 06:35:45;;;;;;;;;;;;;;;2.36;77.72;98521.16;5307957;32;37113;-65
2022/12/11 06:38:47;;;;;;;;;;;;;;;2.75;77.99;98522.34;5324524;32;35492;-65
2022/12/11 06:41:49;;;;;;;;;;;;;;;2.70;76.81;98525.97;5294075;32;35588;-76
2022/12/11 06:44:51;;;;;;;;;;;;;;;2.76;76.18;98537.00;5307108;32;44602;-74
2022/12/11 06:47:53;;;;;;;;;;;;;;;2.31;78.14;98541.19;5308304;32;35288;-74
2022/12/11 06:50:54;;;;;;;;;;;;;;;2.62;77.92;98553.94;5307610;32;35980;-75
2022/12/11 06:53:56;;;;;;;;;;;;;;;2.47;77.46;98546.69;5323913;32;36496;-66
2022/12/11 06:56:58;;;;;;;;;;;;;;;2.86;76.69;98564.31;5306684;32;34678;-76
2022/12/11 07:00:00;;;;;;;;;;;;;;;2.38;77.03;98565.16;5319909;32;34957;-75
2022/12/11 07:03:03;;;;;;;;;;;;;;;2.24;77.33;98568.22;5300264;32;35970;-66
2022/12/11 07:06:04;;;;;;;;;;;;;;;2.68;76.79;98576.22;5322572;32;35472;-75
2022/12/11 07:09:06;;;;;;;;;;;;;;;2.22;78.41;98571.78;5304771;32;35100;-67
2022/12/11 07:12:08;;;;;;;;;;;;;;;2.30;78.89;98569.78;5306666;32;34844;-76
2022/12/11 07:15:10;;;;;;;;;;;;;;;2.61;76.77;98587.72;5324864;32;35175;-75
2022/12/11 07:18:13;;;;;;;;;;;;;;;2.39;77.03;98580.69;5306563;32;36058;-75
2022/12/11 07:21:15;;;;;;;;;;;;;;;2.36;77.25;98591.16;5324437;32;37757;-65
2022/12/11 07:24:17;;;;;;;;;;;;;;;3.33;74.67;98585.88;5298740;32;35558;-76
2022/12/11 07:27:19;;;;;;;;;;;;;;;2.92;74.96;98590.03;5317983;32;35994;-66
2022/12/11 07:30:21;;;;;;;;;;;;;;;2.35;76.52;98594.66;5309498;32;45306;-76
2022/12/11 07:33:23;;;;;;;;;;;;;;;2.47;76.28;98606.34;5305910;32;37147;-75
2022/12/11 07:36:26;;;;;;;;;;;;;;;2.67;75.81;98600.47;5323984;32;35973;-68
2022/12/11 07:39:28;;;;;;;;;;;;;;;2.64;75.55;98605.75;5299432;32;36293;-67
2022/12/11 07:42:30;;;;;;;;;;;;;;;2.33;76.86;98606.81;5306000;32;35844;-69
2022/12/11 07:45:32;;;;;;;;;;;;;;;2.76;75.65;98609.66;5301630;32;34829;-68
2022/12/11 07:48:34;;;;;;;;;;;;;;;2.48;76.70;98628.78;5315989;32;36003;-76
2022/12/11 07:51:36;;;;;;;;;;;;;;;2.36;77.15;98626.59;5306562;32;35950;-76
2022/12/11 07:54:38;;;;;;;;;;;;;;;2.91;75.10;98629.87;5302629;32;35356;-68
2022/12/11 07:57:40;;;;;;;;;;;;;;;2.65;74.81;98634.25;5315582;32;35288;-66
2022/12/11 08:00:43;;;;;;;;;;;;;;;2.51;75.78;98649.41;5304171;32;34797;-76
2022/12/11 08:03:45;;;;;;;;;;;;;;;2.81;74.88;98657.03;5318792;32;36133;-77
2022/12/11 08:06:47;;;;;;;;;;;;;;;2.89;74.26;98657.59;5298790;32;36010;-67
2022/12/11 08:09:49;;;;;;;;;;;;;;;2.86;74.48;98655.12;5317904;32;35398;-65
2022/12/11 08:12:51;;;;;;;;;;;;;;;2.35;75.63;98662.06;5310007;32;43694;-75
2022/12/11 08:15:53;;;;;;;;;;;;;;;3.08;73.23;98665.59;5306040;32;36142;-75
2022/12/11 08:18:55;;;;;;;;;;;;;;;2.74;73.84;98659.00;5323095;32;35748;-74
2022/12/11 08:21:57;;;;;;;;;;;;;;;3.32;72.87;98675.09;5304427;32;35764;-67
2022/12/11 08:24:59;;;;;;;;;;;;;;;2.50;74.73;98683.19;5323199;32;35519;-65
2022/12/11 08:28:01;;;;;;;;;;;;;;;2.46;75.20;98679.84;5305377;32;35343;-77
2022/12/11 08:31:04;;;;;;;;;;;;;;;2.68;73.22;98683.41;5312740;32;34750;-67
2022/12/11 08:34:06;;;;;;;;;;;;;;;3.05;72.23;98695.09;5309379;32;35966;-66
2022/12/11 08:37:08;;;;;;;;;;;;;;;3.06;73.01;98699.41;5306149;32;36182;-78
2022/12/11 08:40:11;;;;;;;;;;;;;;;2.61;73.13;98700.09;5325970;32;34837;-76
2022/12/11 08:43:13;;;;;;;;;;;;;;;3.17;72.13;98694.69;5288390;32;35528;-68
2022/12/11 08:46:15;;;;;;;;;;;;;;;3.03;71.08;98716.81;5321687;32;35578;-75
2022/12/11 08:49:17;;;;;;;;;;;;;;;3.49;70.28;98726.41;5308166;32;35811;-66
2022/12/11 08:52:19;;;;;;;;;;;;;;;3.76;68.69;98722.78;5315411;32;35451;-76
2022/12/11 08:55:21;;;;;;;;;;;;;;;3.29;70.39;98740.12;5316158;32;44652;-75
2022/12/11 08:58:23;;;;;;;;;;;;;;;3.06;70.26;98737.47;5301609;32;35250;-76
2022/12/11 09:01:25;;;;;;;;;;;;;;;3.08;69.82;98748.66;5325522;32;35682;-68
2022/12/11 09:04:27;;;;;;;;;;;;;;;3.03;70.46;98746.25;5299185;32;35015;-76
2022/12/11 09:07:29;;;;;;;;;;;;;;;2.93;71.39;98758.66;5321829;32;35652;-66
2022/12/11 09:10:31;;;;;;;;;;;;;;;3.16;70.82;98759.63;5305990;32;35479;-75
2022/12/11 09:13:33;;;;;;;;;;;;;;;2.82;70.17;98744.34;5316390;32;35490;-76
2022/12/11 09:16:36;;;;;;;;;;;;;;;2.54;70.70;98754.81;5314931;32;36265;-76
2022/12/11 09:19:38;;;;;;;;;;;;;;;2.35;72.30;98745.03;5301535;32;35638;-75
2022/12/11 09:22:41;;;;;;;;;;;;;;;2.45;72.67;98753.38;5325203;32;35682;-75
2022/12/11 09:25:43;;;;;;;;;;;;;;;2.65;71.30;98748.38;5308114;32;34864;-76
2022/12/11 09:28:45;;;;;;;;;;;;;;;3.28;70.97;98747.94;5322079;32;34650;-75
2022/12/11 09:31:48;;;;;;;;;;;;;;;3.39;70.26;98744.06;5306426;32;35440;-77
2022/12/11 09:34:52;;;;;;;;;;;;;;;3.20;68.48;98753.41;5315533;32;45506;-78
2022/12/11 09:37:54;;;;;;;;;;;;;;;2.65;70.62;98744.94;5312368;32;36127;-67
2022/12/11 09:40:56;;;;;;;;;;;;;;;2.73;70.92;98761.09;5302486;32;35442;-77
2022/12/11 09:44:05;;;;;;;;;;;;;;;3.03;69.63;98754.03;5303735;32;35335;-66
2022/12/11 09:47:19;;;;;;;;;;;;;;;2.77;69.89;98747.12;5307537;32;35436;-67
2022/12/11 09:50:22;;;;;;;;;;;;;;;2.76;70.68;98749.75;5320742;32;44609;-77
2022/12/11 09:53:31;;;;;;;;;;;;;;;3.03;68.42;98756.63;5309911;32;35887;-67
2022/12/11 09:56:37;;;;;;;;;;;;;;;3.13;68.88;98760.56;5305091;32;36696;-69
2022/12/11 09:59:43;;;;;;;;;;;;;;;2.77;68.95;98757.50;5324502;32;35320;-78
2022/12/11 10:02:57;;;;;;;;;;;;;;;3.46;67.47;98740.34;5299023;32;35325;-67
2022/12/11 10:05:59;;;;;;;;;;;;;;;3.10;68.14;98747.72;5331012;32;44399;-66
2022/12/11 10:09:05;;;;;;;;;;;;;;;3.40;68.13;98737.13;5305087;32;35374;-77
2022/12/11 10:12:07;;;;;;;;;;;;;;;3.15;68.39;98727.59;5309181;32;36006;-77
2022/12/11 10:15:32;;;;;;;;;;;;;;;3.10;67.71;98726.09;5322761;32;35242;-66
2022/12/11 10:18:34;;;;;;;;;;;;;;;3.29;68.22;98727.16;5302401;32;35502;-77
2022/12/11 10:21:38;;;;;;;;;;;;;;;3.38;67.64;98728.56;5322968;32;35108;-76
2022/12/11 10:24:50;;;;;;;;;;;;;;;3.63;67.06;98742.34;5308763;32;34753;-78
2022/12/11 10:28:13;;;;;;;;;;;;;;;3.13;67.68;98751.94;5306803;32;35833;-76
2022/12/11 10:31:18;;;;;;;;;;;;;;;3.41;67.37;98751.81;5324832;32;35378;-66
2022/12/11 10:34:33;;;;;;;;;;;;;;;3.09;67.82;98760.72;5300460;32;45470;-74
2022/12/11 10:37:35;;;;;;;;;;;;;;;2.94;67.45;98764.69;5324707;32;35180;-68
2022/12/11 10:40:37;;;;;;;;;;;;;;;3.42;67.15;98758.72;5308050;32;34862;-76
2022/12/11 10:43:41;;;;;;;;;;;;;;;3.25;68.72;98754.97;5291902;32;34806;-76
2022/12/11 10:46:43;;;;;;;;;;;;;;;3.74;65.92;98752.34;5314571;32;37416;-67
2022/12/11 10:50:11;;;;;;;;;;;;;;;3.21;66.38;98766.34;5301006;32;38382;-75
2022/12/11 10:53:20;;;;;;;;;;;;;;;2.88;67.78;98775.28;5312485;32;36020;-77
2022/12/11 10:56:28;;;;;;;;;;;;;;;3.00;68.11;98785.25;5311471;32;45140;-76
2022/12/11 10:59:56;;;;;;;;;;;;;;;3.36;66.80;98803.94;5312073;32;35347;-74
2022/12/11 11:02:58;;;;;;;;;;;;;;;3.44;66.73;98786.31;5320416;32;43301;-66
2022/12/11 11:06:02;;;;;;;;;;;;;;;3.66;67.14;98786.38;5303360;32;35633;-77
2022/12/11 11:09:21;;;;;;;;;;;;;;;3.42;66.70;98788.13;5307587;32;35390;-76
2022/12/11 11:12:25;;;;;;;;;;;;;;;3.32;67.50;98785.91;5292449;32;46723;-76
2022/12/11 11:15:28;;;;;;;;;;;;;;;3.65;66.32;98778.66;5316895;32;35397;-67
2022/12/11 11:18:30;;;;;;;;;;;;;;;3.59;66.84;98786.66;5303008;32;35460;-66
2022/12/11 11:21:33;;;;;;;;;;;;;;;3.47;65.40;98782.75;5305188;32;35606;-66
2022/12/11 11:24:37;;;;;;;;;;;;;;;3.12;67.62;98776.22;5317928;32;35671;-66
2022/12/11 11:27:43;;;;;;;;;;;;;;;2.89;67.75;98776.97;5305995;32;36115;-67
2022/12/11 11:30:53;;;;;;;;;;;;;;;3.47;65.83;98769.75;5321941;32;37571;-66
2022/12/11 11:33:56;;;;;;;;;;;;;;;2.93;67.20;98750.87;5304170;32;45174;-77
2022/12/11 11:36:59;;;;;;;;;;;;;;;3.03;67.12;98773.91;5307036;32;35659;-68
2022/12/11 11:40:07;;;;;;;;;;;;;;;3.07;67.50;98783.31;5317974;32;34616;-67
2022/12/11 11:43:09;;;;;;;;;;;;;;;2.95;67.32;98787.16;5290685;32;34748;-78
2022/12/11 11:46:14;;;;;;;;;;;;;;;3.21;67.31;98794.91;5322058;32;34885;-76
2022/12/11 11:49:33;;;;;;;;;;;;;;;3.25;66.75;98799.09;5305566;32;35588;-76
2022/12/11 11:52:37;;;;;;;;;;;;;;;3.49;66.72;98801.75;5314553;32;38501;-66
2022/12/11 11:55:49;;;;;;;;;;;;;;;3.28;67.38;98797.28;5316660;32;35724;-77
2022/12/11 11:58:55;;;;;;;;;;;;;;;3.70;66.05;98808.75;5303848;32;44845;-76
2022/12/11 12:01:57;;;;;;;;;;;;;;;3.75;64.35;98819.00;5322467;32;35562;-66
2022/12/11 12:04:59;;;;;;;;;;;;;;;3.72;65.45;98814.75;5297598;32;35627;-67
2022/12/11 12:08:03;;;;;;;;;;;;;;;4.32;63.87;98828.97;5319639;32;35533;-67
2022/12/11 12:11:15;;;;;;;;;;;;;;;3.57;65.07;98835.25;5305588;32;35696;-76
2022/12/11 12:14:17;;;;;;;;;;;;;;;3.38;64.90;98835.03;5302385;32;35287;-75
2022/12/11 12:17:48;;;;;;;;;;;;;;;3.32;65.85;98846.47;5324192;32;36983;-67
2022/12/11 12:20:59;;;;;;;;;;;;;;;3.37;65.92;98843.72;5306798;32;44904;-77
2022/12/11 12:24:07;;;;;;;;;;;;;;;3.32;65.92;98848.22;5323428;32;35171;-76
2022/12/11 12:27:20;;;;;;;;;;;;;;;3.48;66.26;98846.81;5310883;32;35630;-76
2022/12/11 12:31:02;;;;;;;;;;;;;;;3.13;65.31;98841.06;5307595;32;35747;-76
2022/12/11 12:34:23;;;;;;;;;;;;;;;3.12;65.83;98838.50;5326261;32;36842;-76
2022/12/11 12:37:37;;;;;;;;;;;;;;;3.17;66.16;98842.66;5307519;32;44614;-67
2022/12/11 12:40:51;;;;;;;;;;;;;;;2.85;67.04;98828.16;5309078;32;35398;-67
2022/12/11 12:44:05;;;;;;;;;;;;;;;3.30;65.56;98831.84;5304565;32;44873;-75
2022/12/11 12:47:08;;;;;;;;;;;;;;;3.77;64.95;98828.41;5307845;32;35650;-66
2022/12/11 12:50:14;;;;;;;;;;;;;;;3.41;65.77;98837.50;5325913;32;35150;-78
2022/12/11 12:53:20;;;;;;;;;;;;;;;2.95;66.65;98846.84;5306440;32;35511;-66
2022/12/11 12:56:22;;;;;;;;;;;;;;;2.83;66.89;98861.06;5308394;32;44527;-67
2022/12/11 12:59:25;;;;;;;;;;;;;;;2.70;68.17;98867.53;5315992;32;34762;-77
2022/12/11 13:02:27;;;;;;;;;;;;;;;3.27;66.45;98856.16;5308053;32;35614;-68
2022/12/11 13:05:29;;;;;;;;;;;;;;;3.30;65.96;98873.41;5320938;32;35543;-77
2022/12/11 13:08:43;;;;;;;;;;;;;;;3.52;66.04;98882.16;5301165;32;33575;-76
2022/12/11 13:11:46;;;;;;;;;;;;;;;3.11;66.32;98899.12;5321188;32;34764;-77
2022/12/11 13:14:54;;;;;;;;;;;;;;;3.55;64.61;98895.06;5306090;32;35715;-69
2022/12/11 13:17:57;;;;;;;;;;;;;;;3.49;64.88;98898.69;5308340;32;44696;-68
2022/12/11 13:20:59;;;;;;;;;;;;;;;3.58;64.27;98901.88;5319950;32;36034;-68
2022/12/11 13:24:15;;;;;;;;;;;;;;;3.42;65.31;98906.75;5306364;32;35442;-78
2022/12/11 13:27:24;;;;;;;;;;;;;;;3.45;64.79;98924.81;5325888;32;36118;-66
2022/12/11 13:30:27;;;;;;;;;;;;;;;3.20;65.14;98919.59;5308067;32;44719;-78
2022/12/11 13:33:29;;;;;;;;;;;;;;;3.80;63.52;98918.44;5311314;32;35436;-66
2022/12/11 13:36:32;;;;;;;;;;;;;;;4.11;62.69;98917.31;5320732;32;36191;-69
2022/12/11 13:39:34;;;;;;;;;;;;;;;3.64;63.74;98920.69;5308116;32;35072;-76
2022/12/11 13:42:38;;;;;;;;;;;;;;;3.21;65.06;98929.91;5304949;32;35920;-77
2022/12/11 13:45:47;;;;;;;;;;;;;;;3.51;64.19;98929.81;5300535;32;36233;-65
2022/12/11 13:48:59;;;;;;;;;;;;;;;3.06;65.21;98943.41;5324363;32;35500;-76
2022/12/11 13:52:02;;;;;;;;;;;;;;;3.09;65.27;98940.72;5310587;32;35686;-77
2022/12/11 13:55:13;;;;;;;;;;;;;;;3.15;64.87;98930.09;5307567;32;35508;-76
2022/12/11 13:58:18;;;;;;;;;;;;;;;3.12;65.53;98932.81;5323079;32;34947;-66
2022/12/11 14:01:21;;;;;;;;;;;;;;;3.11;64.74;98938.91;5309672;32;43334;-69
2022/12/11 14:04:23;;;;;;;;;;;;;;;3.43;64.96;98947.41;5322520;32;36217;-75
2022/12/11 14:07:26;;;;;;;;;;;;;;;3.15;65.33;98956.06;5301246;32;35313;-67
2022/12/11 14:10:31;;;;;;;;;;;;;;;3.73;64.37;98954.16;5311152;32;36192;-77
2022/12/11 14:13:34;;;;;;;;;;;;;;;4.07;62.71;98966.00;5319386;32;36193;-68
2022/12/11 14:16:36;;;;;;;;;;;;;;;3.86;63.24;98971.94;5303928;32;36861;-67
2022/12/11 14:19:38;;;;;;;;;;;;;;;2.85;66.10;98967.44;5317292;32;36150;-77
2022/12/11 14:22:40;;;;;;;;;;;;;;;3.44;65.18;98978.53;5307601;32;35283;-69
2022/12/11 14:25:42;;;;;;;;;;;;;;;2.95;66.27;98994.78;5324872;32;36207;-77
2022/12/11 14:28:43;;;;;;;;;;;;;;;3.09;65.95;98976.19;5307676;32;35800;-70
2022/12/11 14:31:45;;;;;;;;;;;;;;;3.38;65.17;98993.44;5311082;32;35525;-66
2022/12/11 14:34:47;;;;;;;;;;;;;;;3.63;64.44;99014.28;5313953;32;36178;-67
2022/12/11 14:37:49;;;;;;;;;;;;;;;3.04;66.28;99007.50;5306326;32;35508;-67
2022/12/11 14:40:53;;;;;;;;;;;;;;;2.67;67.27;99020.69;5330692;32;44948;-76
2022/12/11 14:43:59;;;;;;;;;;;;;;;2.71;68.06;99023.19;5287792;32;35537;-68
2022/12/11 14:47:05;;;;;;;;;;;;;;;2.75;68.09;99018.72;5321701;32;34777;-66
2022/12/11 14:50:08;;;;;;;;;;;;;;;2.50;67.49;99018.56;5303464;32;35571;-76
2022/12/11 14:53:16;;;;;;;;;;;;;;;2.51;68.63;99029.78;5306852;32;36437;-65
2022/12/11 14:56:19;;;;;;;;;;;;;;;2.94;66.96;99029.41;5321019;32;35459;-66
2022/12/11 14:59:22;;;;;;;;;;;;;;;2.14;69.77;99025.63;5305620;32;44362;-77
2022/12/11 15:02:33;;;;;;;;;;;;;;;1.97;70.90;99038.19;5322174;32;35211;-77
2022/12/11 15:05:35;;;;;;;;;;;;;;;2.53;69.20;99031.47;5302020;32;36296;-76
2022/12/11 15:08:41;;;;;;;;;;;;;;;2.90;67.55;99035.63;5306997;32;34356;-68
2022/12/11 15:11:43;;;;;;;;;;;;;;;2.74;68.10;99039.53;5315530;32;35300;-76
2022/12/11 15:14:48;;;;;;;;;;;;;;;2.48;68.48;99042.88;5304164;32;35658;-77
2022/12/11 15:17:50;;;;;;;;;;;;;;;2.78;68.64;99041.16;5323113;32;35516;-67
2022/12/11 15:20:54;;;;;;;;;;;;;;;3.16;66.66;99050.41;5307189;32;44748;-77
2022/12/11 15:23:57;;;;;;;;;;;;;;;3.02;67.06;99042.16;5324306;32;34676;-66
2022/12/11 15:27:00;;;;;;;;;;;;;;;2.94;67.12;99045.84;5304084;32;35139;-67
2022/12/11 15:30:14;;;;;;;;;;;;;;;3.59;65.20;99052.50;5312766;32;35160;-67
2022/12/11 15:33:20;;;;;;;;;;;;;;;2.82;66.56;99055.72;5323712;32;36048;-77
2022/12/11 15:36:29;;;;;;;;;;;;;;;2.96;65.56;99063.94;5300250;32;44680;-69
2022/12/11 15:39:30;;;;;;;;;;;;;;;2.63;66.28;99061.44;5324666;32;35403;-66
2022/12/11 15:42:37;;;;;;;;;;;;;;;3.08;65.34;99058.41;5290640;32;35267;-68
2022/12/11 15:45:42;;;;;;;;;;;;;;;2.86;64.09;99057.34;5315273;32;35651;-67
2022/12/11 15:48:44;;;;;;;;;;;;;;;2.55;65.01;99062.56;5315386;32;35561;-66
2022/12/11 15:51:46;;;;;;;;;;;;;;;2.35;66.09;99068.28;5308252;32;36148;-69
2022/12/11 15:54:47;;;;;;;;;;;;;;;2.52;65.42;99065.25;5322482;32;36136;-66
2022/12/11 15:57:51;;;;;;;;;;;;;;;2.91;63.84;99066.72;5309425;32;36170;-76
2022/12/11 16:00:53;;;;;;;;;;;;;;;2.83;64.20;99078.19;5312911;32;45712;-77
2022/12/11 16:03:55;;;;;;;;;;;;;;;2.37;65.04;99074.25;5306373;32;36017;-66
2022/12/11 16:07:04;;;;;;;;;;;;;;;3.11;63.78;99073.06;5312485;32;35973;-79
2022/12/11 16:10:06;;;;;;;;;;;;;;;2.06;65.22;99079.37;5312730;32;35777;-75
2022/12/11 16:13:09;;;;;;;;;;;;;;;2.52;64.69;99089.44;5307250;32;35546;-66
2022/12/11 16:16:10;;;;;;;;;;;;;;;2.84;63.79;99090.28;5325996;32;35650;-76
2022/12/11 16:19:12;;;;;;;;;;;;;;;2.78;63.60;99087.88;5300118;32;35084;-67